sensor_id;sensor_type;location;lat;lon;timestamp;temperature;humidity
33328;DHT22;19692;52.998;9.116;2022-09-09T00:04:00;14.60;99.90
33328;DHT22;19692;52.998;9.116;2022-09-09T00:06:45;14.60;99.90
33328;DHT22;19692;52.998;9.116;2022-09-09T00:12:37;14.60;99.90
33328;DHT22;19692;52.998;9.116;2022-09-09T00:15:11;14.60;99.90
33328;DHT22;19692;52.998;9.116;2022-09-09T00:17:47;14.60;99.90
33328;DHT22;19692;52.998;9.116;2022-09-09T00:25:58;14.60;99.90
33328;DHT22;19692;52.998;9.116;2022-09-09T00:28:32;14.60;99.90
33328;DHT22;19692;52.998;9.116;2022-09-09T00:31:11;14.50;99.90
33328;DHT22;19692;52.998;9.116;2022-09-09T00:33:39;14.50;99.90
33328;DHT22;19692;52.998;9.116;2022-09-09T00:36:13;14.50;99.90
33328;DHT22;19692;52.998;9.116;2022-09-09T00:38:47;14.50;99.90
33328;DHT22;19692;52.998;9.116;2022-09-09T00:41:45;14.50;99.90
33328;DHT22;19692;52.998;9.116;2022-09-09T00:44:30;14.60;99.90
33328;DHT22;19692;52.998;9.116;2022-09-09T00:50:53;14.50;99.90
33328;DHT22;19692;52.998;9.116;2022-09-09T00:58:30;14.40;99.90
33328;DHT22;19692;52.998;9.116;2022-09-09T01:03:49;14.50;99.90
33328;DHT22;19692;52.998;9.116;2022-09-09T01:06:31;14.40;99.90
33328;DHT22;19692;52.998;9.116;2022-09-09T01:09:16;14.40;99.90
33328;DHT22;19692;52.998;9.116;2022-09-09T01:12:16;14.40;99.90
33328;DHT22;19692;52.998;9.116;2022-09-09T01:14:50;14.30;99.90
33328;DHT22;19692;52.998;9.116;2022-09-09T01:17:27;14.20;99.90
33328;DHT22;19692;52.998;9.116;2022-09-09T01:20:08;14.30;99.90
33328;DHT22;19692;52.998;9.116;2022-09-09T01:28:13;14.20;99.90
33328;DHT22;19692;52.998;9.116;2022-09-09T01:30:42;14.20;99.90
33328;DHT22;19692;52.998;9.116;2022-09-09T01:33:14;14.20;99.90
33328;DHT22;19692;52.998;9.116;2022-09-09T01:36:04;14.30;99.90
33328;DHT22;19692;52.998;9.116;2022-09-09T01:38:34;14.20;99.90
33328;DHT22;19692;52.998;9.116;2022-09-09T01:41:01;14.20;99.90
33328;DHT22;19692;52.998;9.116;2022-09-09T01:43:27;14.20;99.90
33328;DHT22;19692;52.998;9.116;2022-09-09T01:45:55;14.20;99.90
33328;DHT22;19692;52.998;9.116;2022-09-09T01:48:24;14.20;99.90
33328;DHT22;19692;52.998;9.116;2022-09-09T01:50:50;14.20;99.90
33328;DHT22;19692;52.998;9.116;2022-09-09T01:53:18;14.20;99.90
33328;DHT22;19692;52.998;9.116;2022-09-09T01:56:00;14.10;99.90
33328;DHT22;19692;52.998;9.116;2022-09-09T02:02:01;14.10;99.90
33328;DHT22;19692;52.998;9.116;2022-09-09T02:04:47;14.00;99.90
33328;DHT22;19692;52.998;9.116;2022-09-09T02:09:49;14.00;99.90
33328;DHT22;19692;52.998;9.116;2022-09-09T02:12:30;13.90;99.90
33328;DHT22;19692;52.998;9.116;2022-09-09T02:15:03;13.90;99.90
33328;DHT22;19692;52.998;9.116;2022-09-09T02:17:34;13.80;99.90
33328;DHT22;19692;52.998;9.116;2022-09-09T02:20:08;13.80;99.90
33328;DHT22;19692;52.998;9.116;2022-09-09T02:22:39;13.80;99.90
33328;DHT22;19692;52.998;9.116;2022-09-09T02:25:10;13.70;99.90
33328;DHT22;19692;52.998;9.116;2022-09-09T02:27:40;13.80;99.90
33328;DHT22;19692;52.998;9.116;2022-09-09T02:30:07;13.80;99.90
33328;DHT22;19692;52.998;9.116;2022-09-09T02:32:35;13.80;99.90
33328;DHT22;19692;52.998;9.116;2022-09-09T02:35:06;13.80;99.90
33328;DHT22;19692;52.998;9.116;2022-09-09T02:37:39;13.70;99.90
33328;DHT22;19692;52.998;9.116;2022-09-09T02:40:10;13.70;99.90
33328;DHT22;19692;52.998;9.116;2022-09-09T02:42:43;13.70;99.90
33328;DHT22;19692;52.998;9.116;2022-09-09T02:45:12;13.70;99.90
33328;DHT22;19692;52.998;9.116;2022-09-09T02:48:08;13.70;99.90
33328;DHT22;19692;52.998;9.116;2022-09-09T02:54:09;13.60;99.90
33328;DHT22;19692;52.998;9.116;2022-09-09T02:56:40;13.60;99.90
33328;DHT22;19692;52.998;9.116;2022-09-09T02:59:07;13.60;99.90
33328;DHT22;19692;52.998;9.116;2022-09-09T03:01:33;13.60;99.90
33328;DHT22;19692;52.998;9.116;2022-09-09T03:04:01;13.60;99.90
33328;DHT22;19692;52.998;9.116;2022-09-09T03:06:30;13.60;99.90
33328;DHT22;19692;52.998;9.116;2022-09-09T03:08:56;13.50;99.90
33328;DHT22;19692;52.998;9.116;2022-09-09T03:11:26;13.50;99.90
33328;DHT22;19692;52.998;9.116;2022-09-09T03:13:53;13.50;99.90
33328;DHT22;19692;52.998;9.116;2022-09-09T03:16:24;13.50;99.90
33328;DHT22;19692;52.998;9.116;2022-09-09T03:18:49;13.60;99.90
33328;DHT22;19692;52.998;9.116;2022-09-09T03:21:15;13.60;99.90
33328;DHT22;19692;52.998;9.116;2022-09-09T03:23:41;13.60;99.90
33328;DHT22;19692;52.998;9.116;2022-09-09T03:26:07;13.60;99.90
33328;DHT22;19692;52.998;9.116;2022-09-09T03:28:33;13.70;99.90
33328;DHT22;19692;52.998;9.116;2022-09-09T03:31:04;13.70;99.90
33328;DHT22;19692;52.998;9.116;2022-09-09T03:33:31;13.70;99.90
33328;DHT22;19692;52.998;9.116;2022-09-09T03:35:57;13.80;99.90
33328;DHT22;19692;52.998;9.116;2022-09-09T03:38:24;13.80;99.90
33328;DHT22;19692;52.998;9.116;2022-09-09T03:40:51;13.80;99.90
33328;DHT22;19692;52.998;9.116;2022-09-09T03:43:23;13.80;99.90
33328;DHT22;19692;52.998;9.116;2022-09-09T03:45:50;13.70;99.90
33328;DHT22;19692;52.998;9.116;2022-09-09T03:48:17;13.70;99.90
33328;DHT22;19692;52.998;9.116;2022-09-09T03:50:47;13.80;99.90
33328;DHT22;19692;52.998;9.116;2022-09-09T03:53:15;13.80;99.90
33328;DHT22;19692;52.998;9.116;2022-09-09T03:55:50;13.80;99.90
33328;DHT22;19692;52.998;9.116;2022-09-09T03:58:24;13.90;99.90
33328;DHT22;19692;52.998;9.116;2022-09-09T04:00:57;13.90;99.90
33328;DHT22;19692;52.998;9.116;2022-09-09T04:03:31;13.90;99.90
33328;DHT22;19692;52.998;9.116;2022-09-09T04:05:59;13.90;99.90
33328;DHT22;19692;52.998;9.116;2022-09-09T04:08:26;13.90;99.90
33328;DHT22;19692;52.998;9.116;2022-09-09T04:10:52;14.00;99.90
33328;DHT22;19692;52.998;9.116;2022-09-09T04:13:19;14.00;99.90
33328;DHT22;19692;52.998;9.116;2022-09-09T04:15:52;13.90;99.90
33328;DHT22;19692;52.998;9.116;2022-09-09T04:18:19;14.00;99.90
33328;DHT22;19692;52.998;9.116;2022-09-09T04:20:48;14.00;99.90
33328;DHT22;19692;52.998;9.116;2022-09-09T04:23:16;14.00;99.90
33328;DHT22;19692;52.998;9.116;2022-09-09T04:25:47;14.00;99.90
33328;DHT22;19692;52.998;9.116;2022-09-09T04:28:18;14.00;99.90
33328;DHT22;19692;52.998;9.116;2022-09-09T04:30:45;14.10;99.90
33328;DHT22;19692;52.998;9.116;2022-09-09T04:33:12;14.10;99.90
33328;DHT22;19692;52.998;9.116;2022-09-09T04:35:39;14.00;99.90
33328;DHT22;19692;52.998;9.116;2022-09-09T04:38:06;14.00;99.90
33328;DHT22;19692;52.998;9.116;2022-09-09T04:40:34;14.00;99.90
33328;DHT22;19692;52.998;9.116;2022-09-09T04:43:01;14.00;99.90
33328;DHT22;19692;52.998;9.116;2022-09-09T04:45:30;14.00;99.90
33328;DHT22;19692;52.998;9.116;2022-09-09T04:47:57;14.00;99.90
33328;DHT22;19692;52.998;9.116;2022-09-09T04:50:22;14.00;99.90
33328;DHT22;19692;52.998;9.116;2022-09-09T04:52:48;14.10;99.90
33328;DHT22;19692;52.998;9.116;2022-09-09T04:55:14;14.10;99.90
33328;DHT22;19692;52.998;9.116;2022-09-09T04:57:40;14.10;99.90
33328;DHT22;19692;52.998;9.116;2022-09-09T05:00:06;14.10;99.90
33328;DHT22;19692;52.998;9.116;2022-09-09T05:02:33;14.10;99.90
33328;DHT22;19692;52.998;9.116;2022-09-09T05:05:03;14.10;99.90
33328;DHT22;19692;52.998;9.116;2022-09-09T05:07:29;14.20;99.90
33328;DHT22;19692;52.998;9.116;2022-09-09T05:09:56;14.20;99.90
33328;DHT22;19692;52.998;9.116;2022-09-09T05:12:22;14.20;99.90
33328;DHT22;19692;52.998;9.116;2022-09-09T05:14:53;14.20;99.90
33328;DHT22;19692;52.998;9.116;2022-09-09T05:17:19;14.20;99.90
33328;DHT22;19692;52.998;9.116;2022-09-09T05:19:45;14.20;99.90
33328;DHT22;19692;52.998;9.116;2022-09-09T05:22:11;14.30;99.90
33328;DHT22;19692;52.998;9.116;2022-09-09T05:24:37;14.20;99.90
33328;DHT22;19692;52.998;9.116;2022-09-09T05:27:04;14.30;99.90
33328;DHT22;19692;52.998;9.116;2022-09-09T05:29:31;14.30;99.90
33328;DHT22;19692;52.998;9.116;2022-09-09T05:31:59;14.40;99.90
33328;DHT22;19692;52.998;9.116;2022-09-09T05:34:25;14.40;99.90
33328;DHT22;19692;52.998;9.116;2022-09-09T05:36:50;14.40;99.90
33328;DHT22;19692;52.998;9.116;2022-09-09T05:39:17;14.40;99.90
33328;DHT22;19692;52.998;9.116;2022-09-09T05:41:43;14.40;99.90
33328;DHT22;19692;52.998;9.116;2022-09-09T05:44:09;14.50;99.90
33328;DHT22;19692;52.998;9.116;2022-09-09T05:46:35;14.40;99.90
33328;DHT22;19692;52.998;9.116;2022-09-09T05:49:02;14.40;99.90
33328;DHT22;19692;52.998;9.116;2022-09-09T05:51:28;14.40;99.90
33328;DHT22;19692;52.998;9.116;2022-09-09T05:53:57;14.40;99.90
33328;DHT22;19692;52.998;9.116;2022-09-09T05:56:25;14.50;99.90
33328;DHT22;19692;52.998;9.116;2022-09-09T05:58:53;14.50;99.90
33328;DHT22;19692;52.998;9.116;2022-09-09T06:01:25;14.50;99.90
33328;DHT22;19692;52.998;9.116;2022-09-09T06:03:52;14.50;99.90
33328;DHT22;19692;52.998;9.116;2022-09-09T06:06:23;14.50;99.90
33328;DHT22;19692;52.998;9.116;2022-09-09T06:08:52;14.60;99.90
33328;DHT22;19692;52.998;9.116;2022-09-09T06:11:21;14.60;99.90
33328;DHT22;19692;52.998;9.116;2022-09-09T06:13:48;14.60;99.90
33328;DHT22;19692;52.998;9.116;2022-09-09T06:16:18;14.70;99.90
33328;DHT22;19692;52.998;9.116;2022-09-09T06:18:45;14.70;99.90
33328;DHT22;19692;52.998;9.116;2022-09-09T06:21:19;14.70;99.90
33328;DHT22;19692;52.998;9.116;2022-09-09T06:23:46;14.90;99.90
33328;DHT22;19692;52.998;9.116;2022-09-09T06:26:18;14.90;99.90
33328;DHT22;19692;52.998;9.116;2022-09-09T06:28:46;15.00;99.90
33328;DHT22;19692;52.998;9.116;2022-09-09T06:31:14;15.00;99.90
33328;DHT22;19692;52.998;9.116;2022-09-09T06:33:43;15.00;99.90
33328;DHT22;19692;52.998;9.116;2022-09-09T06:36:39;15.00;99.90
33328;DHT22;19692;52.998;9.116;2022-09-09T06:39:06;15.10;99.90
33328;DHT22;19692;52.998;9.116;2022-09-09T06:41:33;15.10;99.90
33328;DHT22;19692;52.998;9.116;2022-09-09T06:43:59;15.30;99.90
33328;DHT22;19692;52.998;9.116;2022-09-09T06:46:29;15.50;99.90
33328;DHT22;19692;52.998;9.116;2022-09-09T06:48:57;15.60;99.90
33328;DHT22;19692;52.998;9.116;2022-09-09T06:51:30;15.70;99.90
33328;DHT22;19692;52.998;9.116;2022-09-09T06:53:59;15.70;99.90
33328;DHT22;19692;52.998;9.116;2022-09-09T06:56:34;15.90;99.90
33328;DHT22;19692;52.998;9.116;2022-09-09T06:59:03;16.00;99.90
33328;DHT22;19692;52.998;9.116;2022-09-09T07:01:32;16.10;99.90
33328;DHT22;19692;52.998;9.116;2022-09-09T07:04:00;16.20;99.90
33328;DHT22;19692;52.998;9.116;2022-09-09T07:06:28;16.10;99.90
33328;DHT22;19692;52.998;9.116;2022-09-09T07:08:57;16.20;99.90
33328;DHT22;19692;52.998;9.116;2022-09-09T07:11:31;16.10;99.90
33328;DHT22;19692;52.998;9.116;2022-09-09T07:14:00;16.20;99.90
33328;DHT22;19692;52.998;9.116;2022-09-09T07:16:27;16.30;99.90
33328;DHT22;19692;52.998;9.116;2022-09-09T07:18:53;16.20;99.90
33328;DHT22;19692;52.998;9.116;2022-09-09T07:21:27;16.20;99.90
33328;DHT22;19692;52.998;9.116;2022-09-09T07:23:54;16.30;99.90
33328;DHT22;19692;52.998;9.116;2022-09-09T07:26:22;16.40;99.90
33328;DHT22;19692;52.998;9.116;2022-09-09T07:28:52;16.60;99.90
33328;DHT22;19692;52.998;9.116;2022-09-09T07:31:27;16.70;99.90
33328;DHT22;19692;52.998;9.116;2022-09-09T07:33:55;16.80;99.90
33328;DHT22;19692;52.998;9.116;2022-09-09T07:36:24;17.00;99.90
33328;DHT22;19692;52.998;9.116;2022-09-09T07:39:11;17.10;99.90
33328;DHT22;19692;52.998;9.116;2022-09-09T07:41:45;17.00;99.90
33328;DHT22;19692;52.998;9.116;2022-09-09T07:44:17;16.90;99.90
33328;DHT22;19692;52.998;9.116;2022-09-09T07:46:47;17.10;99.90
33328;DHT22;19692;52.998;9.116;2022-09-09T07:49:13;17.30;99.90
33328;DHT22;19692;52.998;9.116;2022-09-09T07:51:42;17.40;99.90
33328;DHT22;19692;52.998;9.116;2022-09-09T07:54:12;17.50;99.90
33328;DHT22;19692;52.998;9.116;2022-09-09T07:56:39;17.50;99.90
33328;DHT22;19692;52.998;9.116;2022-09-09T07:59:06;17.50;99.90
33328;DHT22;19692;52.998;9.116;2022-09-09T08:01:34;17.60;99.90
33328;DHT22;19692;52.998;9.116;2022-09-09T08:04:13;17.70;99.90
33328;DHT22;19692;52.998;9.116;2022-09-09T08:06:43;17.80;99.90
33328;DHT22;19692;52.998;9.116;2022-09-09T08:17:50;18.60;99.90
33328;DHT22;19692;52.998;9.116;2022-09-09T08:20:16;18.60;99.90
33328;DHT22;19692;52.998;9.116;2022-09-09T08:22:42;18.60;99.90
33328;DHT22;19692;52.998;9.116;2022-09-09T08:25:07;18.60;99.90
33328;DHT22;19692;52.998;9.116;2022-09-09T08:27:35;18.80;99.90
33328;DHT22;19692;52.998;9.116;2022-09-09T08:30:02;18.70;99.90
33328;DHT22;19692;52.998;9.116;2022-09-09T08:32:29;18.50;99.90
33328;DHT22;19692;52.998;9.116;2022-09-09T08:34:55;18.50;99.90
33328;DHT22;19692;52.998;9.116;2022-09-09T08:37:21;18.70;99.90
33328;DHT22;19692;52.998;9.116;2022-09-09T08:39:46;18.70;99.90
33328;DHT22;19692;52.998;9.116;2022-09-09T08:42:25;18.70;99.90
33328;DHT22;19692;52.998;9.116;2022-09-09T08:45:02;18.80;99.90
33328;DHT22;19692;52.998;9.116;2022-09-09T08:50:31;19.00;99.90
33328;DHT22;19692;52.998;9.116;2022-09-09T08:53:14;18.90;99.90
33328;DHT22;19692;52.998;9.116;2022-09-09T08:55:48;19.20;99.90
33328;DHT22;19692;52.998;9.116;2022-09-09T08:58:22;19.40;99.90
33328;DHT22;19692;52.998;9.116;2022-09-09T09:06:54;19.50;99.90
33328;DHT22;19692;52.998;9.116;2022-09-09T09:12:32;19.90;99.90
33328;DHT22;19692;52.998;9.116;2022-09-09T09:15:10;19.90;99.90
33328;DHT22;19692;52.998;9.116;2022-09-09T09:17:45;19.80;99.90
33328;DHT22;19692;52.998;9.116;2022-09-09T09:20:14;19.70;99.90
33328;DHT22;19692;52.998;9.116;2022-09-09T09:22:49;19.40;99.90
33328;DHT22;19692;52.998;9.116;2022-09-09T09:25:26;19.20;99.90
33328;DHT22;19692;52.998;9.116;2022-09-09T09:30:30;19.50;99.90
33328;DHT22;19692;52.998;9.116;2022-09-09T09:33:23;19.30;99.90
33328;DHT22;19692;52.998;9.116;2022-09-09T09:35:52;19.10;99.90
33328;DHT22;19692;52.998;9.116;2022-09-09T09:38:24;19.10;99.90
33328;DHT22;19692;52.998;9.116;2022-09-09T09:40:59;19.10;99.90
33328;DHT22;19692;52.998;9.116;2022-09-09T09:43:34;19.10;99.90
33328;DHT22;19692;52.998;9.116;2022-09-09T09:46:03;19.00;99.90
33328;DHT22;19692;52.998;9.116;2022-09-09T09:48:30;19.00;99.90
33328;DHT22;19692;52.998;9.116;2022-09-09T09:51:13;18.90;99.90
33328;DHT22;19692;52.998;9.116;2022-09-09T09:53:41;18.90;99.90
33328;DHT22;19692;52.998;9.116;2022-09-09T09:56:14;18.80;99.90
33328;DHT22;19692;52.998;9.116;2022-09-09T09:58:50;18.90;99.90
33328;DHT22;19692;52.998;9.116;2022-09-09T10:01:25;19.20;99.90
33328;DHT22;19692;52.998;9.116;2022-09-09T10:03:54;19.60;99.90
33328;DHT22;19692;52.998;9.116;2022-09-09T10:08:59;20.40;99.90
33328;DHT22;19692;52.998;9.116;2022-09-09T10:14:20;21.20;99.90
33328;DHT22;19692;52.998;9.116;2022-09-09T10:19:37;21.70;99.90
33328;DHT22;19692;52.998;9.116;2022-09-09T10:22:24;21.60;99.90
33328;DHT22;19692;52.998;9.116;2022-09-09T10:25:04;21.40;99.90
33328;DHT22;19692;52.998;9.116;2022-09-09T10:34:12;20.10;99.90
33328;DHT22;19692;52.998;9.116;2022-09-09T10:36:47;19.90;99.90
33328;DHT22;19692;52.998;9.116;2022-09-09T10:42:09;19.70;99.90
33328;DHT22;19692;52.998;9.116;2022-09-09T10:47:54;19.60;99.90
33328;DHT22;19692;52.998;9.116;2022-09-09T10:56:13;19.50;99.90
33328;DHT22;19692;52.998;9.116;2022-09-09T10:58:50;19.40;99.90
33328;DHT22;19692;52.998;9.116;2022-09-09T11:01:45;19.40;99.90
33328;DHT22;19692;52.998;9.116;2022-09-09T11:04:25;19.50;99.90
33328;DHT22;19692;52.998;9.116;2022-09-09T11:06:56;19.60;99.90
33328;DHT22;19692;52.998;9.116;2022-09-09T11:09:26;19.60;99.90
33328;DHT22;19692;52.998;9.116;2022-09-09T11:11:56;19.70;99.90
33328;DHT22;19692;52.998;9.116;2022-09-09T11:17:18;19.50;99.90
33328;DHT22;19692;52.998;9.116;2022-09-09T11:19:46;19.40;99.90
33328;DHT22;19692;52.998;9.116;2022-09-09T11:22:37;19.40;99.90
33328;DHT22;19692;52.998;9.116;2022-09-09T11:25:29;19.20;99.90
33328;DHT22;19692;52.998;9.116;2022-09-09T11:28:15;19.10;99.90
33328;DHT22;19692;52.998;9.116;2022-09-09T11:34:09;19.10;99.90
33328;DHT22;19692;52.998;9.116;2022-09-09T11:37:12;19.20;99.90
33328;DHT22;19692;52.998;9.116;2022-09-09T11:40:09;19.20;99.90
33328;DHT22;19692;52.998;9.116;2022-09-09T11:42:39;19.00;99.90
33328;DHT22;19692;52.998;9.116;2022-09-09T11:45:21;19.00;99.90
33328;DHT22;19692;52.998;9.116;2022-09-09T11:47:54;18.90;99.90
33328;DHT22;19692;52.998;9.116;2022-09-09T11:52:49;18.70;99.90
33328;DHT22;19692;52.998;9.116;2022-09-09T11:55:26;18.70;99.90
33328;DHT22;19692;52.998;9.116;2022-09-09T11:58:03;18.50;99.90
33328;DHT22;19692;52.998;9.116;2022-09-09T12:00:36;18.40;99.90
33328;DHT22;19692;52.998;9.116;2022-09-09T12:03:04;18.20;99.90
33328;DHT22;19692;52.998;9.116;2022-09-09T12:05:40;18.10;99.90
33328;DHT22;19692;52.998;9.116;2022-09-09T12:08:09;17.90;99.90
33328;DHT22;19692;52.998;9.116;2022-09-09T12:10:39;17.70;99.90
33328;DHT22;19692;52.998;9.116;2022-09-09T12:13:25;17.00;99.90
33328;DHT22;19692;52.998;9.116;2022-09-09T12:15:56;16.60;99.90
33328;DHT22;19692;52.998;9.116;2022-09-09T12:18:35;16.40;99.90
33328;DHT22;19692;52.998;9.116;2022-09-09T12:21:17;16.30;99.90
33328;DHT22;19692;52.998;9.116;2022-09-09T12:31:51;16.20;99.90
33328;DHT22;19692;52.998;9.116;2022-09-09T12:34:42;16.10;99.90
33328;DHT22;19692;52.998;9.116;2022-09-09T12:37:36;16.10;99.90
33328;DHT22;19692;52.998;9.116;2022-09-09T12:40:26;16.10;99.90
33328;DHT22;19692;52.998;9.116;2022-09-09T12:42:53;16.10;99.90
33328;DHT22;19692;52.998;9.116;2022-09-09T12:45:25;16.10;99.90
33328;DHT22;19692;52.998;9.116;2022-09-09T12:48:00;16.10;99.90
33328;DHT22;19692;52.998;9.116;2022-09-09T12:50:32;16.10;99.90
33328;DHT22;19692;52.998;9.116;2022-09-09T12:53:02;16.20;99.90
33328;DHT22;19692;52.998;9.116;2022-09-09T12:55:32;16.30;99.90
33328;DHT22;19692;52.998;9.116;2022-09-09T12:58:01;16.30;99.90
33328;DHT22;19692;52.998;9.116;2022-09-09T13:00:32;16.40;99.90
33328;DHT22;19692;52.998;9.116;2022-09-09T13:03:13;16.50;99.90
33328;DHT22;19692;52.998;9.116;2022-09-09T13:05:41;16.60;99.90
33328;DHT22;19692;52.998;9.116;2022-09-09T13:08:12;16.60;99.90
33328;DHT22;19692;52.998;9.116;2022-09-09T13:10:51;16.70;99.90
33328;DHT22;19692;52.998;9.116;2022-09-09T13:13:36;16.90;99.90
33328;DHT22;19692;52.998;9.116;2022-09-09T13:16:05;17.10;99.90
33328;DHT22;19692;52.998;9.116;2022-09-09T13:18:40;17.20;99.90
33328;DHT22;19692;52.998;9.116;2022-09-09T13:21:07;17.50;99.90
33328;DHT22;19692;52.998;9.116;2022-09-09T13:23:35;17.90;99.90
33328;DHT22;19692;52.998;9.116;2022-09-09T13:26:05;18.30;99.90
33328;DHT22;19692;52.998;9.116;2022-09-09T13:28:33;18.70;99.90
33328;DHT22;19692;52.998;9.116;2022-09-09T13:31:02;19.10;99.90
33328;DHT22;19692;52.998;9.116;2022-09-09T13:33:37;19.60;99.90
33328;DHT22;19692;52.998;9.116;2022-09-09T13:36:06;19.80;99.90
33328;DHT22;19692;52.998;9.116;2022-09-09T13:38:58;19.90;99.90
33328;DHT22;19692;52.998;9.116;2022-09-09T13:41:44;20.00;99.90
33328;DHT22;19692;52.998;9.116;2022-09-09T13:44:26;20.00;99.90
33328;DHT22;19692;52.998;9.116;2022-09-09T13:49:39;19.80;99.90
33328;DHT22;19692;52.998;9.116;2022-09-09T13:52:10;19.70;99.90
33328;DHT22;19692;52.998;9.116;2022-09-09T13:54:37;19.70;99.90
33328;DHT22;19692;52.998;9.116;2022-09-09T13:57:03;19.60;99.90
33328;DHT22;19692;52.998;9.116;2022-09-09T13:59:30;19.50;99.90
33328;DHT22;19692;52.998;9.116;2022-09-09T14:02:04;19.40;99.90
33328;DHT22;19692;52.998;9.116;2022-09-09T14:04:30;19.20;99.90
33328;DHT22;19692;52.998;9.116;2022-09-09T14:06:56;18.90;99.90
33328;DHT22;19692;52.998;9.116;2022-09-09T14:09:22;18.80;99.90
33328;DHT22;19692;52.998;9.116;2022-09-09T14:11:48;18.70;99.90
33328;DHT22;19692;52.998;9.116;2022-09-09T14:14:14;18.50;99.90
33328;DHT22;19692;52.998;9.116;2022-09-09T14:16:40;18.60;99.90
33328;DHT22;19692;52.998;9.116;2022-09-09T14:19:07;18.50;99.90
33328;DHT22;19692;52.998;9.116;2022-09-09T14:21:33;18.40;99.90
33328;DHT22;19692;52.998;9.116;2022-09-09T14:23:59;18.30;99.90
33328;DHT22;19692;52.998;9.116;2022-09-09T14:26:25;18.20;99.90
33328;DHT22;19692;52.998;9.116;2022-09-09T14:28:51;18.10;99.90
33328;DHT22;19692;52.998;9.116;2022-09-09T14:31:18;18.00;99.90
33328;DHT22;19692;52.998;9.116;2022-09-09T14:33:44;17.90;99.90
33328;DHT22;19692;52.998;9.116;2022-09-09T14:36:10;17.90;99.90
33328;DHT22;19692;52.998;9.116;2022-09-09T14:38:37;17.80;99.90
33328;DHT22;19692;52.998;9.116;2022-09-09T14:41:12;17.70;99.90
33328;DHT22;19692;52.998;9.116;2022-09-09T14:43:42;17.70;99.90
33328;DHT22;19692;52.998;9.116;2022-09-09T14:46:12;17.70;99.90
33328;DHT22;19692;52.998;9.116;2022-09-09T14:48:39;17.60;99.90
33328;DHT22;19692;52.998;9.116;2022-09-09T14:51:10;17.50;99.90
33328;DHT22;19692;52.998;9.116;2022-09-09T14:53:39;17.50;99.90
33328;DHT22;19692;52.998;9.116;2022-09-09T14:56:07;17.40;99.90
33328;DHT22;19692;52.998;9.116;2022-09-09T14:58:34;17.40;99.90
33328;DHT22;19692;52.998;9.116;2022-09-09T15:01:05;17.30;99.90
33328;DHT22;19692;52.998;9.116;2022-09-09T15:03:35;17.20;99.90
33328;DHT22;19692;52.998;9.116;2022-09-09T15:06:10;17.20;99.90
33328;DHT22;19692;52.998;9.116;2022-09-09T15:08:39;17.10;99.90
33328;DHT22;19692;52.998;9.116;2022-09-09T15:11:06;17.00;99.90
33328;DHT22;19692;52.998;9.116;2022-09-09T15:13:34;16.80;99.90
33328;DHT22;19692;52.998;9.116;2022-09-09T15:16:11;16.80;99.90
33328;DHT22;19692;52.998;9.116;2022-09-09T15:18:37;16.70;99.90
33328;DHT22;19692;52.998;9.116;2022-09-09T15:21:12;16.50;99.90
33328;DHT22;19692;52.998;9.116;2022-09-09T15:23:41;16.30;99.90
33328;DHT22;19692;52.998;9.116;2022-09-09T15:26:07;16.20;99.90
33328;DHT22;19692;52.998;9.116;2022-09-09T15:28:34;16.10;99.90
33328;DHT22;19692;52.998;9.116;2022-09-09T15:31:07;16.10;99.90
33328;DHT22;19692;52.998;9.116;2022-09-09T15:33:35;16.00;99.90
33328;DHT22;19692;52.998;9.116;2022-09-09T15:36:19;15.90;99.90
33328;DHT22;19692;52.998;9.116;2022-09-09T15:38:46;15.90;99.90
33328;DHT22;19692;52.998;9.116;2022-09-09T15:41:13;15.90;99.90
33328;DHT22;19692;52.998;9.116;2022-09-09T15:43:43;15.90;99.90
33328;DHT22;19692;52.998;9.116;2022-09-09T15:46:32;15.90;99.90
33328;DHT22;19692;52.998;9.116;2022-09-09T15:49:15;15.90;99.90
33328;DHT22;19692;52.998;9.116;2022-09-09T15:51:55;15.90;99.90
33328;DHT22;19692;52.998;9.116;2022-09-09T15:54:24;15.90;99.90
33328;DHT22;19692;52.998;9.116;2022-09-09T15:56:53;15.90;99.90
33328;DHT22;19692;52.998;9.116;2022-09-09T15:59:24;16.00;99.90
33328;DHT22;19692;52.998;9.116;2022-09-09T16:01:51;16.00;99.90
33328;DHT22;19692;52.998;9.116;2022-09-09T16:04:18;16.00;99.90
33328;DHT22;19692;52.998;9.116;2022-09-09T16:06:57;16.00;99.90
33328;DHT22;19692;52.998;9.116;2022-09-09T16:09:26;16.00;99.90
33328;DHT22;19692;52.998;9.116;2022-09-09T16:11:52;15.90;99.90
33328;DHT22;19692;52.998;9.116;2022-09-09T16:14:19;15.90;99.90
33328;DHT22;19692;52.998;9.116;2022-09-09T16:16:45;15.90;99.90
33328;DHT22;19692;52.998;9.116;2022-09-09T16:19:12;16.00;99.90
33328;DHT22;19692;52.998;9.116;2022-09-09T16:21:44;16.00;99.90
33328;DHT22;19692;52.998;9.116;2022-09-09T16:24:13;16.00;99.90
33328;DHT22;19692;52.998;9.116;2022-09-09T16:26:42;15.90;99.90
33328;DHT22;19692;52.998;9.116;2022-09-09T16:29:11;15.90;99.90
33328;DHT22;19692;52.998;9.116;2022-09-09T16:31:38;15.90;99.90
33328;DHT22;19692;52.998;9.116;2022-09-09T16:34:04;15.80;99.90
33328;DHT22;19692;52.998;9.116;2022-09-09T16:36:32;15.80;99.90
33328;DHT22;19692;52.998;9.116;2022-09-09T16:39:04;15.70;99.90
33328;DHT22;19692;52.998;9.116;2022-09-09T16:41:34;15.70;99.90
33328;DHT22;19692;52.998;9.116;2022-09-09T16:44:03;15.60;99.90
33328;DHT22;19692;52.998;9.116;2022-09-09T16:46:32;15.70;99.90
33328;DHT22;19692;52.998;9.116;2022-09-09T16:49:00;15.60;99.90
33328;DHT22;19692;52.998;9.116;2022-09-09T16:51:29;15.60;99.90
33328;DHT22;19692;52.998;9.116;2022-09-09T16:53:59;15.60;99.90
33328;DHT22;19692;52.998;9.116;2022-09-09T16:56:27;15.60;99.90
33328;DHT22;19692;52.998;9.116;2022-09-09T16:58:59;15.60;99.90
33328;DHT22;19692;52.998;9.116;2022-09-09T17:01:32;15.70;99.90
33328;DHT22;19692;52.998;9.116;2022-09-09T17:04:04;15.60;99.90
33328;DHT22;19692;52.998;9.116;2022-09-09T17:06:33;15.60;99.90
33328;DHT22;19692;52.998;9.116;2022-09-09T17:09:09;15.70;99.90
33328;DHT22;19692;52.998;9.116;2022-09-09T17:11:39;15.70;99.90
33328;DHT22;19692;52.998;9.116;2022-09-09T17:14:07;15.80;99.90
33328;DHT22;19692;52.998;9.116;2022-09-09T17:16:35;15.80;99.90
33328;DHT22;19692;52.998;9.116;2022-09-09T17:19:01;15.80;99.90
33328;DHT22;19692;52.998;9.116;2022-09-09T17:21:30;15.80;99.90
33328;DHT22;19692;52.998;9.116;2022-09-09T17:23:57;15.80;99.90
33328;DHT22;19692;52.998;9.116;2022-09-09T17:26:26;15.60;99.90
33328;DHT22;19692;52.998;9.116;2022-09-09T17:28:55;15.50;99.90
33328;DHT22;19692;52.998;9.116;2022-09-09T17:31:24;15.40;99.90
33328;DHT22;19692;52.998;9.116;2022-09-09T17:33:51;15.30;99.90
33328;DHT22;19692;52.998;9.116;2022-09-09T17:36:27;15.30;99.90
33328;DHT22;19692;52.998;9.116;2022-09-09T17:38:54;15.20;99.90
33328;DHT22;19692;52.998;9.116;2022-09-09T17:41:23;15.10;99.90
33328;DHT22;19692;52.998;9.116;2022-09-09T17:43:51;15.10;99.90